createdAt,value
2023-02-04T00:00:58.431Z,6.38
2023-02-04T00:04:00.476Z,7.07
2023-02-04T00:07:03.980Z,6.30
2023-02-04T00:10:07.554Z,6.68
2023-02-04T00:13:09.720Z,5.95
2023-02-04T00:16:12.424Z,6.53
2023-02-04T00:19:16.665Z,6.22
2023-02-04T00:22:18.915Z,6.38
2023-02-04T00:25:21.275Z,6.85
2023-02-04T00:28:25.552Z,6.07
2023-02-04T00:31:31.240Z,6.43
2023-02-04T00:34:33.661Z,6.38
2023-02-04T00:37:38.273Z,5.45
2023-02-04T00:40:40.456Z,6.35
2023-02-04T00:43:42.792Z,7.10
2023-02-04T00:46:45.885Z,5.75
2023-02-04T00:49:47.952Z,6.82
2023-02-04T00:52:50.292Z,6.50
2023-02-04T00:55:52.285Z,6.78
2023-02-04T00:58:54.582Z,6.55
2023-02-04T01:01:57.833Z,5.55
2023-02-04T01:04:59.886Z,5.47
2023-02-04T01:08:01.838Z,5.72
2023-02-04T01:11:04.766Z,6.53
2023-02-04T01:14:07.677Z,7.15
2023-02-04T01:17:12.451Z,6.25
2023-02-04T01:20:16.557Z,6.60
2023-02-04T01:23:19.011Z,6.72
2023-02-04T01:26:21.863Z,5.97
2023-02-04T01:29:24.050Z,6.88
2023-02-04T01:32:28.595Z,6.68
2023-02-04T01:35:33.289Z,6.45
2023-02-04T01:38:35.467Z,5.97
2023-02-04T01:41:38.586Z,6.35
2023-02-04T01:44:41.280Z,5.70
2023-02-04T01:47:44.598Z,6.57
2023-02-04T01:50:51.220Z,6.70
2023-02-04T01:53:55.602Z,5.43
2023-02-04T01:56:57.915Z,6.90
2023-02-04T02:00:00.303Z,6.45
2023-02-04T02:03:05.144Z,6.80
2023-02-04T02:06:09.920Z,6.78
2023-02-04T02:09:12.031Z,6.95
2023-02-04T02:12:14.059Z,7.93
2023-02-04T02:15:17.560Z,6.85
2023-02-04T02:18:19.682Z,6.82
2023-02-04T02:21:30.981Z,6.78
2023-02-04T02:24:35.507Z,7.47
2023-02-04T02:27:37.969Z,7.32
2023-02-04T02:30:40.665Z,7.82
2023-02-04T02:33:43.257Z,7.28
2023-02-04T02:36:45.452Z,8.00
2023-02-04T02:39:47.974Z,8.65
2023-02-04T02:42:53.636Z,8.48
2023-02-04T02:45:58.573Z,9.57
2023-02-04T02:49:00.974Z,9.07
2023-02-04T02:52:03.032Z,7.47
2023-02-04T02:55:05.472Z,9.18
2023-02-04T02:58:34.930Z,7.43
2023-02-04T03:01:37.389Z,7.00
2023-02-04T03:04:47.085Z,7.90
2023-02-04T03:07:51.125Z,6.93
2023-02-04T03:10:53.386Z,7.70
2023-02-04T03:13:57.739Z,8.77
2023-02-04T03:17:01.742Z,8.32
2023-02-04T03:20:04.971Z,7.82
2023-02-04T03:23:07.217Z,7.63
2023-02-04T03:26:10.863Z,8.43
2023-02-04T03:29:13.198Z,7.30
2023-02-04T03:32:17.326Z,8.55
2023-02-04T03:35:20.019Z,8.95
2023-02-04T03:38:22.157Z,8.55
2023-02-04T03:41:25.528Z,7.65
2023-02-04T03:44:27.660Z,9.07
2023-02-04T03:47:29.673Z,8.40
2023-02-04T03:50:31.958Z,7.93
2023-02-04T03:53:34.151Z,9.13
2023-02-04T03:56:36.269Z,9.27
2023-02-04T03:59:38.365Z,9.07
2023-02-04T04:02:41.394Z,8.20
2023-02-04T04:05:44.605Z,9.20
2023-02-04T04:08:46.725Z,8.98
2023-02-04T04:11:48.764Z,9.23
2023-02-04T04:14:51.039Z,9.05
2023-02-04T04:17:54.396Z,8.20
2023-02-04T04:20:56.540Z,9.75
2023-02-04T04:23:59.245Z,9.05
2023-02-04T04:27:01.481Z,9.20
2023-02-04T04:30:04.484Z,9.85
2023-02-04T04:33:06.992Z,8.88
2023-02-04T04:36:09.361Z,9.95
2023-02-04T04:39:11.600Z,9.32
2023-02-04T04:42:15.111Z,10.20
2023-02-04T04:45:17.307Z,10.73
2023-02-04T04:48:20.272Z,11.13
2023-02-04T04:51:22.399Z,10.13
2023-02-04T04:54:24.647Z,11.52
2023-02-04T04:57:26.708Z,11.43
2023-02-04T05:00:28.747Z,11.68
2023-02-04T05:03:30.811Z,11.88
2023-02-04T05:06:32.842Z,11.88
2023-02-04T05:09:34.884Z,11.95
2023-02-04T05:12:36.997Z,12.30
2023-02-04T05:15:39.461Z,13.43
2023-02-04T05:18:41.779Z,12.25
2023-02-04T05:21:43.787Z,13.63
2023-02-04T05:24:48.010Z,12.40
2023-02-04T05:27:50.187Z,12.80
2023-02-04T05:30:52.438Z,12.23
2023-02-04T05:33:54.857Z,13.43
2023-02-04T05:36:56.941Z,14.15
2023-02-04T05:39:59.106Z,12.10
2023-02-04T05:43:01.852Z,12.93
2023-02-04T05:46:04.473Z,14.38
2023-02-04T05:49:07.704Z,13.05
2023-02-04T05:52:09.819Z,12.20
2023-02-04T05:55:12.842Z,11.65
2023-02-04T05:58:15.094Z,11.98
2023-02-04T06:01:18.611Z,13.05
2023-02-04T06:04:20.828Z,13.25
2023-02-04T06:07:23.022Z,12.82
2023-02-04T06:10:25.287Z,13.27
2023-02-04T06:13:27.371Z,14.02
2023-02-04T06:16:29.785Z,14.70
2023-02-04T06:19:31.826Z,13.13
2023-02-04T06:22:34.052Z,14.23
2023-02-04T06:25:36.953Z,13.15
2023-02-04T06:28:39.941Z,13.43
2023-02-04T06:31:42.511Z,13.25
2023-02-04T06:34:44.990Z,14.63
2023-02-04T06:37:47.586Z,14.63
2023-02-04T06:40:53.702Z,14.90
2023-02-04T06:43:55.762Z,15.18
2023-02-04T06:46:58.668Z,14.75
2023-02-04T06:50:00.682Z,12.90
2023-02-04T06:53:02.817Z,12.85
2023-02-04T06:56:07.871Z,14.23
2023-02-04T06:59:11.264Z,13.02
2023-02-04T07:02:13.359Z,12.65
2023-02-04T07:05:19.714Z,12.98
2023-02-04T07:08:24.203Z,14.05
2023-02-04T07:11:26.209Z,14.18
2023-02-04T07:14:30.285Z,14.20
2023-02-04T07:17:32.557Z,13.45
2023-02-04T07:20:34.988Z,13.52
2023-02-04T07:23:40.189Z,13.10
2023-02-04T07:26:42.909Z,12.73
2023-02-04T07:29:45.283Z,13.13
2023-02-04T07:32:47.483Z,11.52
2023-02-04T07:35:49.662Z,12.02
2023-02-04T07:38:52.104Z,12.85
2023-02-04T07:41:54.137Z,13.68
2023-02-04T07:44:59.885Z,13.27
2023-02-04T07:48:01.931Z,13.73
2023-02-04T07:51:04.230Z,12.77
2023-02-04T07:54:06.402Z,13.60
2023-02-04T07:57:08.509Z,12.25
2023-02-04T08:00:11.205Z,11.30
2023-02-04T08:03:16.537Z,11.80
2023-02-04T08:06:19.234Z,10.10
2023-02-04T08:09:21.260Z,12.25
2023-02-04T08:12:23.337Z,12.38
2023-02-04T08:15:25.532Z,11.18
2023-02-04T08:18:27.539Z,12.43
2023-02-04T08:21:29.671Z,11.98
2023-02-04T08:24:33.146Z,12.68
2023-02-04T08:27:35.299Z,12.85
2023-02-04T08:30:37.536Z,11.98
2023-02-04T08:33:40.089Z,12.55
2023-02-04T08:36:42.144Z,11.35
2023-02-04T08:39:47.534Z,13.77
2023-02-04T08:42:49.668Z,12.75
2023-02-04T08:45:51.967Z,10.98
2023-02-04T08:48:54.044Z,12.55
2023-02-04T08:51:56.030Z,13.88
2023-02-04T08:54:58.130Z,14.02
2023-02-04T08:58:01.402Z,13.60
2023-02-04T09:01:03.607Z,13.00
2023-02-04T09:04:05.719Z,14.10
2023-02-04T09:07:07.759Z,13.73
2023-02-04T09:10:10.151Z,14.52
2023-02-04T09:13:12.350Z,13.68
2023-02-04T09:16:18.019Z,13.45
2023-02-04T09:19:25.593Z,12.20
2023-02-04T09:22:27.680Z,13.17
2023-02-04T09:25:29.890Z,13.40
2023-02-04T09:28:32.657Z,14.32
2023-02-04T09:31:34.919Z,13.98
2023-02-04T09:34:37.055Z,11.80
2023-02-04T09:37:39.244Z,13.00
2023-02-04T09:40:51.510Z,13.32
2023-02-04T09:43:53.590Z,11.75
2023-02-04T09:47:00.737Z,11.57
2023-02-04T09:50:03.213Z,13.38
2023-02-04T09:53:07.853Z,10.38
2023-02-04T09:56:13.294Z,11.93
2023-02-04T09:59:20.516Z,12.10
2023-02-04T10:02:24.398Z,11.20
2023-02-04T10:05:35.172Z,10.60
2023-02-04T10:08:37.377Z,11.27
2023-02-04T10:11:43.178Z,12.98
2023-02-04T10:14:45.419Z,10.90
2023-02-04T10:18:14.420Z,10.48
2023-02-04T10:21:20.979Z,10.63
2023-02-04T10:24:26.666Z,11.15
2023-02-04T10:27:28.921Z,10.85
2023-02-04T10:30:38.411Z,10.00
2023-02-04T10:33:40.581Z,10.85
2023-02-04T10:36:46.330Z,9.90
2023-02-04T10:39:50.143Z,9.55
2023-02-04T10:42:53.407Z,10.38
2023-02-04T10:46:01.732Z,9.18
2023-02-04T10:52:17.111Z,8.50
2023-02-04T10:55:23.451Z,9.00
2023-02-04T10:58:29.805Z,9.02
2023-02-04T11:01:32.954Z,8.48
2023-02-04T11:04:34.977Z,7.95
2023-02-04T11:07:37.052Z,8.38
2023-02-04T11:10:46.870Z,8.52
2023-02-04T11:13:55.296Z,9.68
2023-02-04T11:17:01.751Z,8.77
2023-02-04T11:20:39.825Z,9.25
2023-02-04T11:23:42.926Z,9.20
2023-02-04T11:27:06.468Z,9.05
2023-02-04T11:30:21.898Z,8.90
2023-02-04T11:33:25.321Z,9.40
2023-02-04T11:36:27.384Z,9.23
2023-02-04T11:39:37.573Z,9.80
2023-02-04T11:42:43.610Z,8.98
2023-02-04T11:45:48.743Z,9.55
2023-02-04T11:48:55.826Z,9.95
2023-02-04T11:52:08.952Z,9.00
2023-02-04T11:55:12.236Z,9.23
2023-02-04T11:58:23.089Z,9.98
2023-02-04T12:01:31.643Z,10.15
2023-02-04T12:07:39.194Z,10.63
2023-02-04T12:10:49.461Z,10.68
2023-02-04T12:14:13.069Z,9.95
2023-02-04T12:17:19.886Z,9.27
2023-02-04T12:20:22.062Z,10.48
2023-02-04T12:23:25.155Z,8.68
2023-02-04T12:26:28.436Z,11.65
2023-02-04T12:29:30.684Z,12.20
2023-02-04T12:32:32.719Z,9.45
2023-02-04T12:35:39.162Z,10.88
2023-02-04T12:38:49.364Z,9.85
2023-02-04T12:41:51.422Z,10.48
2023-02-04T12:44:53.771Z,9.57
2023-02-04T12:47:55.940Z,9.13
2023-02-04T12:50:57.969Z,9.45
2023-02-04T12:54:00.045Z,10.02
2023-02-04T12:57:02.983Z,9.82
2023-02-04T13:00:05.416Z,7.55
2023-02-04T13:03:07.461Z,10.10
2023-02-04T13:06:11.322Z,7.88
2023-02-04T13:09:13.586Z,8.48
2023-02-04T13:12:16.389Z,7.40
2023-02-04T13:15:18.732Z,7.82
2023-02-04T13:18:20.892Z,7.03
2023-02-04T13:21:23.009Z,6.60
2023-02-04T13:24:25.086Z,6.13
2023-02-04T13:27:28.117Z,6.75
2023-02-04T13:30:30.473Z,6.50
2023-02-04T13:33:33.264Z,6.43
2023-02-04T13:36:35.421Z,6.07
2023-02-04T13:39:37.463Z,6.88
2023-02-04T13:42:39.575Z,6.10
2023-02-04T13:45:49.594Z,6.25
2023-02-04T13:48:51.872Z,6.13
2023-02-04T13:51:56.708Z,5.68
2023-02-04T13:54:59.529Z,6.22
2023-02-04T13:58:01.492Z,6.00
2023-02-04T14:01:04.509Z,5.32
2023-02-04T14:04:06.692Z,5.70
2023-02-04T14:07:10.740Z,5.18
2023-02-04T14:10:12.796Z,4.80
2023-02-04T14:13:15.113Z,6.68
2023-02-04T14:16:17.859Z,5.10
2023-02-04T14:19:20.146Z,5.43
2023-02-04T14:22:23.609Z,5.00
2023-02-04T14:25:26.207Z,3.85
2023-02-04T14:28:28.234Z,3.97
2023-02-04T14:31:30.440Z,5.68
2023-02-04T14:34:32.763Z,5.68
2023-02-04T14:37:35.137Z,5.05
2023-02-04T14:40:37.436Z,5.97
2023-02-04T14:43:39.481Z,4.72
2023-02-04T14:46:44.832Z,5.32
2023-02-04T14:49:47.004Z,5.38
2023-02-04T14:52:49.237Z,5.85
2023-02-04T14:55:51.285Z,5.90
2023-02-04T14:58:53.408Z,4.75
2023-02-04T15:01:55.341Z,5.95
2023-02-04T15:04:57.311Z,5.18
2023-02-04T15:07:59.247Z,4.25
2023-02-04T15:11:01.419Z,5.47
2023-02-04T15:14:04.586Z,4.60
2023-02-04T15:17:06.563Z,4.40
2023-02-04T15:20:09.570Z,5.90
2023-02-04T15:23:30.097Z,5.03
2023-02-04T15:26:51.530Z,5.03
2023-02-04T15:30:12.387Z,5.20
2023-02-04T15:33:33.168Z,3.60
2023-02-04T15:36:53.926Z,5.28
2023-02-04T15:40:14.792Z,5.05
2023-02-04T15:43:35.677Z,5.22
2023-02-04T15:46:37.826Z,3.50
2023-02-04T15:49:40.007Z,4.50
2023-02-04T15:52:42.448Z,3.67
2023-02-04T15:55:44.801Z,2.95
2023-02-04T15:58:46.925Z,3.17
2023-02-04T16:01:49.765Z,3.15
2023-02-04T16:04:52.056Z,5.15
2023-02-04T16:07:54.201Z,4.07
2023-02-04T16:10:56.239Z,3.67
2023-02-04T16:13:58.911Z,3.95
2023-02-04T16:17:01.972Z,4.65
2023-02-04T16:20:04.852Z,5.22
2023-02-04T16:23:07.722Z,4.05
2023-02-04T16:26:09.799Z,4.85
2023-02-04T16:29:11.871Z,4.40
2023-02-04T16:32:15.224Z,5.75
2023-02-04T16:35:17.474Z,3.40
2023-02-04T16:38:19.681Z,4.57
2023-02-04T16:41:21.958Z,5.05
2023-02-04T16:44:24.060Z,6.03
2023-02-04T16:47:26.297Z,4.45
2023-02-04T16:50:28.350Z,4.10
2023-02-04T16:53:30.692Z,5.82
2023-02-04T16:56:35.721Z,5.10
2023-02-04T16:59:38.430Z,4.88
2023-02-04T17:02:40.688Z,4.90
2023-02-04T17:05:43.176Z,5.35
2023-02-04T17:08:45.180Z,6.03
2023-02-04T17:11:47.327Z,4.97
2023-02-04T17:14:49.319Z,5.07
2023-02-04T17:17:51.365Z,5.38
2023-02-04T17:20:53.338Z,4.90
2023-02-04T17:23:56.256Z,5.22
2023-02-04T17:26:59.304Z,4.88
2023-02-04T17:30:01.452Z,5.32
2023-02-04T17:33:03.671Z,5.40
2023-02-04T17:36:06.344Z,5.40
2023-02-04T17:39:08.634Z,6.20
2023-02-04T17:42:10.714Z,5.93
2023-02-04T17:45:12.779Z,6.28
2023-02-04T17:48:15.452Z,6.35
2023-02-04T17:51:18.333Z,5.78
2023-02-04T17:54:20.589Z,6.57
2023-02-04T17:57:24.214Z,6.88
2023-02-04T18:00:29.263Z,6.95
2023-02-04T18:03:32.651Z,6.95
2023-02-04T18:06:38.032Z,6.57
2023-02-04T18:09:40.152Z,2.95
2023-02-04T18:12:42.249Z,5.60
2023-02-04T18:15:55.579Z,6.47
2023-02-04T18:19:19.364Z,4.75
2023-02-04T18:22:25.060Z,4.60
2023-02-04T18:25:27.028Z,4.00
2023-02-04T18:28:29.130Z,2.75
2023-02-04T18:31:51.209Z,4.80
2023-02-04T18:34:55.457Z,4.10
2023-02-04T18:37:58.015Z,4.82
2023-02-04T18:41:02.715Z,4.22
2023-02-04T18:44:29.448Z,5.05
2023-02-04T18:47:37.152Z,5.70
2023-02-04T18:50:41.678Z,6.40
2023-02-04T18:53:44.405Z,5.57
2023-02-04T18:56:46.533Z,5.13
2023-02-04T19:00:00.329Z,5.65
2023-02-04T19:03:14.570Z,6.28
2023-02-04T19:06:27.477Z,6.63
2023-02-04T19:09:35.890Z,6.00
2023-02-04T19:12:41.014Z,6.65
2023-02-04T19:15:45.327Z,5.88
2023-02-04T19:18:47.715Z,5.47
2023-02-04T19:21:50.641Z,4.53
2023-02-04T19:25:22.310Z,6.35
2023-02-04T19:28:37.423Z,6.03
2023-02-04T19:31:42.169Z,5.22
2023-02-04T19:34:45.282Z,5.53
2023-02-04T19:37:54.245Z,5.20
2023-02-04T19:40:56.718Z,5.45
2023-02-04T19:44:14.164Z,5.15
2023-02-04T19:47:25.009Z,4.53
2023-02-04T19:50:32.308Z,6.10
2023-02-04T19:53:34.710Z,6.10
2023-02-04T19:56:39.955Z,4.95
2023-02-04T19:59:42.065Z,5.05
2023-02-04T20:02:44.243Z,5.32
2023-02-04T20:05:47.068Z,4.13
2023-02-04T20:08:52.942Z,4.45
2023-02-04T20:12:00.609Z,4.88
2023-02-04T20:15:19.485Z,4.82
2023-02-04T20:18:23.565Z,5.13
2023-02-04T20:21:25.962Z,5.30
2023-02-04T20:24:35.416Z,5.10
2023-02-04T20:27:41.544Z,5.28
2023-02-04T20:30:44.107Z,5.00
2023-02-04T20:33:52.162Z,4.90
2023-02-04T20:36:55.366Z,4.82
2023-02-04T20:39:57.349Z,4.45
2023-02-04T20:43:16.942Z,3.58
2023-02-04T20:46:25.136Z,3.97
2023-02-04T20:49:27.231Z,3.90
2023-02-04T20:52:41.245Z,3.45
2023-02-04T20:55:51.455Z,3.42
2023-02-04T20:59:18.048Z,3.42
2023-02-04T21:02:23.219Z,4.82
2023-02-04T21:05:25.368Z,3.75
2023-02-04T21:08:42.887Z,3.55
2023-02-04T21:11:44.934Z,2.75
2023-02-04T21:14:47.038Z,3.85
2023-02-04T21:17:49.124Z,3.83
2023-02-04T21:20:51.364Z,4.22
2023-02-04T21:23:53.637Z,3.75
2023-02-04T21:26:55.623Z,3.80
2023-02-04T21:29:57.781Z,4.03
2023-02-04T21:33:01.159Z,3.78
2023-02-04T21:36:03.348Z,3.38
2023-02-04T21:39:06.968Z,4.07
2023-02-04T21:42:13.505Z,3.85
2023-02-04T21:45:18.039Z,4.57
2023-02-04T21:48:21.369Z,4.53
2023-02-04T21:51:23.518Z,3.50
2023-02-04T21:54:25.551Z,4.00
2023-02-04T21:57:27.624Z,4.22
2023-02-04T22:00:30.050Z,4.15
2023-02-04T22:03:33.514Z,3.72
2023-02-04T22:06:36.848Z,4.13
2023-02-04T22:09:38.893Z,3.20
2023-02-04T22:12:41.099Z,3.22
2023-02-04T22:15:43.052Z,2.55
2023-02-04T22:18:45.052Z,3.30
2023-02-04T22:21:47.132Z,2.95
2023-02-04T22:24:49.297Z,3.00
2023-02-04T22:27:55.849Z,3.65
2023-02-04T22:30:58.015Z,2.90
2023-02-04T22:34:00.529Z,2.60
2023-02-04T22:37:02.790Z,3.42
2023-02-04T22:40:06.037Z,2.92
2023-02-04T22:43:08.171Z,2.72
2023-02-04T22:46:10.405Z,3.75
2023-02-04T22:49:12.476Z,2.10
2023-02-04T22:52:15.024Z,2.38
2023-02-04T22:55:17.307Z,3.05
2023-02-04T22:58:19.435Z,2.90
2023-02-04T23:01:21.714Z,2.65
2023-02-04T23:04:24.213Z,3.20
2023-02-04T23:07:26.656Z,3.25
2023-02-04T23:10:28.749Z,2.47
2023-02-04T23:13:31.450Z,3.47
2023-02-04T23:16:33.576Z,3.08
2023-02-04T23:19:35.686Z,2.97
2023-02-04T23:22:38.080Z,2.55
2023-02-04T23:25:40.439Z,2.47
2023-02-04T23:28:43.080Z,3.30
2023-02-04T23:31:45.657Z,2.85
2023-02-04T23:34:47.692Z,3.10
2023-02-04T23:37:49.858Z,2.97
2023-02-04T23:40:53.369Z,2.60
2023-02-04T23:43:55.407Z,3.05
2023-02-04T23:46:57.541Z,3.10
2023-02-04T23:49:59.605Z,2.65
2023-02-04T23:53:01.622Z,3.42
2023-02-04T23:56:03.775Z,3.80
2023-02-04T23:59:06.686Z,4.38
